Terminal Aerodrome Forecast
Issued by NWS Charleston, WV

Current Version | Previous Version | Graphics & Text | Print | Product List | Glossary On
Versions: 1 2 3 4 5 6 7 8 9 10 11 12 13 14 15 16 17 18 19 20 21 22 23 24 25 26 27
000
FTUS41 KRLX 161122
TAFPKB
TAF
KPKB 161122Z 1612/1712 32006KT P6SM SCT040
     FM162100 33006KT P6SM FEW050
     FM162300 33004KT P6SM FEW250
     FM171000 00000KT 5SM BR SKC=

USA.gov is the U.S. government's official web portal to all federal, state and local government web resources and services.